Weather History for KICL - November, 2012

Change the Weather History Date:

Thursday, November 22, 2012

  Actual Average Record
Temperature  
Mean Temperature 52 °F -  
Max Temperature 66 °F 47 °F 68 °F (2001)
Min Temperature 37 °F 27 °F 15 °F (2013)
Degree Days  
Heating Degree Days 14    
Growing Degree Days 2 (Base 50)    
Moisture  
Dew Point 37 °F    
Average Humidity 57    
Maximum Humidity 75    
Minimum Humidity 30    
Precipitation  
Precipitation 0.00 in - - ()
Sea Level Pressure  
Sea Level Pressure 29.92 in    
Wind  
Wind Speed 11 mph (WSW)    
Max Wind Speed 22 mph    
Max Gust Speed 32 mph    
Visibility 10 miles    
Events      
Averages and records for this station are not official NWS values.
T = Trace of Precipitation, MM = Missing Value Source: NWS Daily Summary

Daily Weather History Graph

Daily Weather History Graph

Search for Another Location

Airport or City:

Trip Planner

Search our weather history database for the weather conditions in past years. The results will help you decide how hot, cold, wet, or windy it might be!

Date:

Astronomy

Nov. 22, 2012 Rise Set
Actual Time 7:15 AM CST 4:56 PM CST
Civil Twilight 6:45 AM CST 5:26 PM CST
Nautical Twilight 6:12 AM CST 6:00 PM CST
Astronomical Twilight 5:39 AM CST 6:32 PM CST
Moon 1:44 PM CST (11/22) 1:34 AM CST (11/22)
Length of Visible Light 10h 40m
Length of Day
9h 41m
Waxing Gibbous, 71% of the Moon is Illuminated
Nov 22
Waxing Gibbous
Nov 28
Full
Dec 6
Last Quarter
Dec 13
New
Dec 19
First Quarter

Hourly Weather History & Observations

Time (CST) Temp. Windchill Dew Point Humidity Pressure Visibility Wind Dir Wind Speed Gust Speed Precip Events Conditions
12:15 AM 53.6 °F - 35.6 °F 51% 29.87 in 10.0 mi South 11.5 mph 17.3 mph N/A   Clear
12:35 AM 53.6 °F - 37.4 °F 54% 29.86 in 10.0 mi South 11.5 mph - N/A   Clear
12:55 AM 55.4 °F - 37.4 °F 51% 29.85 in 10.0 mi South 11.5 mph - N/A   Clear
1:15 AM 55.4 °F - 37.4 °F 51% 29.85 in 10.0 mi South 13.8 mph 20.7 mph N/A   Clear
1:35 AM 55.4 °F - 37.4 °F 51% 29.84 in 10.0 mi South 12.7 mph - N/A   Clear
1:55 AM 55.4 °F - 37.4 °F 51% 29.83 in 10.0 mi South 12.7 mph - N/A   Clear
2:15 AM 55.4 °F - 37.4 °F 51% 29.83 in 10.0 mi South 12.7 mph 17.3 mph N/A   Clear
2:35 AM 55.4 °F - 37.4 °F 51% 29.82 in 10.0 mi South 11.5 mph - N/A   Clear
2:55 AM 53.6 °F - 37.4 °F 54% 29.82 in 10.0 mi South 10.4 mph - N/A   Clear
3:15 AM 53.6 °F - 37.4 °F 54% 29.81 in 10.0 mi South 10.4 mph - N/A   Clear
3:35 AM 53.6 °F - 37.4 °F 54% 29.81 in 10.0 mi South 9.2 mph - N/A   Clear
3:55 AM 53.6 °F - 37.4 °F 54% 29.79 in 10.0 mi South 8.1 mph - N/A   Clear
4:15 AM 51.8 °F - 39.2 °F 62% 29.79 in 10.0 mi South 6.9 mph - N/A   Clear
4:35 AM 51.8 °F - 39.2 °F 62% 29.79 in 10.0 mi South 6.9 mph - N/A   Clear
4:55 AM 51.8 °F - 39.2 °F 62% 29.78 in 10.0 mi South 8.1 mph - N/A   Clear
5:15 AM 50.0 °F - 39.2 °F 66% 29.78 in 10.0 mi South 8.1 mph - N/A   Clear
5:35 AM 48.2 °F - 39.2 °F 71% 29.78 in 10.0 mi South 6.9 mph - N/A   Clear
5:55 AM 48.2 °F - 39.2 °F 71% 29.78 in 10.0 mi South 6.9 mph - N/A   Clear
6:15 AM 48.2 °F - 39.2 °F 71% 29.78 in 10.0 mi South 8.1 mph - N/A   Clear
6:35 AM 48.2 °F - 39.2 °F 71% 29.77 in 10.0 mi South 8.1 mph - N/A   Clear
6:55 AM 50.0 °F - 39.2 °F 66% 29.77 in 10.0 mi South 4.6 mph - N/A   Clear
7:15 AM 48.2 °F - 39.2 °F 71% 29.78 in 10.0 mi South 4.6 mph - N/A   Clear
7:35 AM 50.0 °F - 41.0 °F 71% 29.78 in 10.0 mi South 6.9 mph - N/A   Clear
7:55 AM 51.8 °F - 42.8 °F 71% 29.79 in 10.0 mi South 4.6 mph - N/A   Clear
8:15 AM 51.8 °F - 42.8 °F 71% 29.79 in 10.0 mi South 6.9 mph - N/A   Clear
8:35 AM 55.4 °F - 44.6 °F 67% 29.79 in 10.0 mi South 9.2 mph - N/A   Clear
8:55 AM 57.2 °F - 44.6 °F 63% 29.79 in 10.0 mi SSW 10.4 mph - N/A   Clear
9:15 AM 60.8 °F - 44.6 °F 55% 29.79 in 10.0 mi SSW 13.8 mph 18.4 mph N/A   Clear
9:35 AM 60.8 °F - 44.6 °F 55% 29.80 in 10.0 mi SSW 13.8 mph - N/A   Clear
9:55 AM 60.8 °F - 44.6 °F 55% 29.80 in 10.0 mi SSW 12.7 mph - N/A   Clear
10:15 AM 60.8 °F - 44.6 °F 55% 29.81 in 10.0 mi SSW 17.3 mph 23.0 mph N/A   Clear
10:35 AM 62.6 °F - 46.4 °F 55% 29.80 in 10.0 mi SW 15.0 mph - N/A   Clear
10:55 AM 64.4 °F - 46.4 °F 52% 29.81 in 10.0 mi SW 16.1 mph - N/A   Clear
11:15 AM 62.6 °F - 46.4 °F 55% 29.81 in 10.0 mi SW 13.8 mph 20.7 mph N/A   Clear
11:35 AM 62.6 °F - 44.6 °F 52% 29.80 in 10.0 mi WSW 16.1 mph 20.7 mph N/A   Clear
11:55 AM 64.4 °F - 44.6 °F 49% 29.80 in 10.0 mi WSW 12.7 mph - N/A   Clear
12:15 PM 64.4 °F - 44.6 °F 49% 29.80 in 10.0 mi WSW 12.7 mph - N/A   Clear
12:35 PM 64.4 °F - 42.8 °F 45% 29.80 in 10.0 mi West 15.0 mph 18.4 mph N/A   Clear
12:55 PM 66.2 °F - 39.2 °F 37% 29.81 in 10.0 mi West 13.8 mph 18.4 mph N/A   Clear
1:15 PM 64.4 °F - 35.6 °F 34% 29.83 in 10.0 mi WNW 13.8 mph 21.9 mph N/A   Clear
1:35 PM 64.4 °F - 32.0 °F 30% 29.84 in 10.0 mi WNW 16.1 mph 26.5 mph N/A   Clear
1:55 PM 62.6 °F - 33.8 °F 34% 29.85 in 10.0 mi NW 13.8 mph 23.0 mph N/A   Clear
2:15 PM 62.6 °F - 33.8 °F 34% 29.87 in 10.0 mi NW 12.7 mph 19.6 mph N/A   Clear
2:35 PM 62.6 °F - 35.6 °F 37% 29.88 in 10.0 mi NW 18.4 mph 24.2 mph N/A   Clear
2:55 PM 60.8 °F - 35.6 °F 39% 29.89 in 10.0 mi NW 19.6 mph 28.8 mph N/A   Clear
3:15 PM 60.8 °F - 35.6 °F 39% 29.91 in 10.0 mi NW 13.8 mph 29.9 mph N/A   Clear
3:35 PM 57.2 °F - 33.8 °F 41% 29.94 in 10.0 mi NW 21.9 mph 32.2 mph N/A   Clear
3:55 PM 55.4 °F - 33.8 °F 44% 29.96 in 10.0 mi NW 18.4 mph 28.8 mph N/A   Clear
4:15 PM 55.4 °F - 35.6 °F 47% 29.99 in 10.0 mi NNW 19.6 mph 27.6 mph N/A   Clear
4:35 PM 53.6 °F - 33.8 °F 47% 30.02 in 10.0 mi NNW 18.4 mph 23.0 mph N/A   Clear
4:55 PM 51.8 °F - 33.8 °F 50% 30.04 in 10.0 mi NNW 16.1 mph 21.9 mph N/A   Clear
5:15 PM 51.8 °F - 33.8 °F 50% 30.05 in 10.0 mi NNW 9.2 mph 18.4 mph N/A   Clear
5:35 PM 50.0 °F - 33.8 °F 54% 30.07 in 10.0 mi NNW 8.1 mph - N/A   Clear
5:55 PM 48.2 °F - 33.8 °F 58% 30.08 in 10.0 mi NNW 12.7 mph 16.1 mph N/A   Clear
6:15 PM 48.2 °F - 33.8 °F 58% 30.10 in 10.0 mi NNW 13.8 mph 21.9 mph N/A   Clear
6:35 PM 48.2 °F - 33.8 °F 58% 30.12 in 10.0 mi NNW 11.5 mph 23.0 mph N/A   Clear
6:55 PM 46.4 °F 40.7 °F 33.8 °F 62% 30.12 in 10.0 mi NW 12.7 mph 17.3 mph N/A   Clear
7:15 PM 44.6 °F 39.2 °F 33.8 °F 66% 30.13 in 10.0 mi NW 10.4 mph - N/A   Clear
7:55 PM 44.6 °F 40.7 °F 33.8 °F 66% 30.16 in 10.0 mi NW 6.9 mph - N/A   Clear
8:15 PM 42.8 °F 38.6 °F 33.8 °F 70% 30.17 in 10.0 mi NW 6.9 mph - N/A   Clear
8:35 PM 42.8 °F 38.6 °F 33.8 °F 70% 30.18 in 10.0 mi NW 6.9 mph - N/A   Clear
8:55 PM 42.8 °F 39.3 °F 33.8 °F 70% 30.18 in 10.0 mi NW 5.8 mph - N/A   Clear
9:15 PM 39.2 °F 35.0 °F 32.0 °F 75% 30.19 in 10.0 mi WNW 5.8 mph - N/A   Clear
9:35 PM 39.2 °F 35.0 °F 30.2 °F 70% 30.19 in 10.0 mi WNW 5.8 mph - N/A   Clear
9:55 PM 41.0 °F 35.2 °F 32.0 °F 70% 30.20 in 10.0 mi NW 9.2 mph - N/A   Clear
10:15 PM 39.2 °F 33.6 °F 30.2 °F 70% 30.21 in 10.0 mi NW 8.1 mph - N/A   Clear
10:35 PM 39.2 °F 33.6 °F 30.2 °F 70% 30.21 in 10.0 mi WNW 8.1 mph - N/A   Clear
10:55 PM 37.4 °F 31.4 °F 30.2 °F 75% 30.21 in 10.0 mi WNW 8.1 mph - N/A   Clear
11:15 PM 37.4 °F 31.4 °F 30.2 °F 75% 30.22 in 10.0 mi WNW 8.1 mph - N/A   Clear
11:35 PM 37.4 °F 32.1 °F 28.4 °F 70% 30.21 in 10.0 mi WNW 6.9 mph - N/A   Clear
11:55 PM 37.4 °F 31.4 °F 28.4 °F 70% 30.21 in 10.0 mi West 8.1 mph - N/A   Clear